Time;durP1;ratioP1;P1;durP2;ratioP2;P2;SDS_P1;SDS_P2;PMS_P1;PMS_P2;Temp;Humidity;BMP_temperature;BMP_pressure;BME280_temperature;BME280_humidity;BME280_pressure;Samples;Min_cycle;Max_cycle;Signal;HPM_P1;HPM_P2
2022/08/31 00:05:09;;;;;;;;;;;;;;;;;;4787304;29;19934;-48
2022/08/31 00:07:36;;;;;;;;;;;;;;;;;;4787064;29;20306;-45
2022/08/31 00:10:12;;;;;;;;;;;;;;;;;;4786949;29;20359;-45
2022/08/31 00:12:41;;;;;;;;;;;;;;;;;;4786878;29;19930;-48
2022/08/31 00:15:08;;;;;;;;;;;;;;;;;;4787011;29;20069;-44
2022/08/31 00:17:36;;;;;;;;;;;;;;;;;;4786875;29;20305;-42
2022/08/31 00:20:04;;;;;;;;;;;;;;;;;;4787101;30;20382;-44
2022/08/31 00:22:32;;;;;;;;;;;;;;;;;;4787290;30;19990;-42
2022/08/31 00:24:59;;;;;;;;;;;;;;;;;;4787063;29;20285;-47
2022/08/31 00:27:26;;;;;;;;;;;;;;;;;;4787323;30;19925;-44
2022/08/31 00:29:56;;;;;;;;;;;;;;;;;;4787286;29;20016;-48
2022/08/31 00:32:23;;;;;;;;;;;;;;;;;;4801114;29;19938;-41
2022/08/31 00:34:56;;;;;;;;;;;;;;;;;;4787248;29;19930;-44
2022/08/31 00:37:24;;;;;;;;;;;;;;;;;;4787295;29;20348;-42
2022/08/31 00:39:51;;;;;;;;;;;;;;;;;;4800884;29;19965;-48
2022/08/31 00:42:19;;;;;;;;;;;;;;;;;;4787024;30;19978;-44
2022/08/31 00:44:46;;;;;;;;;;;;;;;;;;4800962;29;19976;-42
2022/08/31 00:47:14;;;;;;;;;;;;;;;;;;4786706;30;20020;-42
2022/08/31 00:49:43;;;;;;;;;;;;;;;;;;4787825;29;19993;-47
2022/08/31 00:52:13;;;;;;;;;;;;;;;;;;4790077;29;20033;-42
2022/08/31 00:54:40;;;;;;;;;;;;;;;;;;4790252;29;19932;-42
2022/08/31 00:57:09;;;;;;;;;;;;;;;;;;4803930;29;19936;-43
2022/08/31 00:59:36;;;;;;;;;;;;;;;;;;4790072;30;19978;-41
2022/08/31 01:02:05;;;;;;;;;;;;;;;;;;4790382;29;19933;-42
2022/08/31 01:04:32;;;;;;;;;;;;;;;;;;4790067;29;19926;-42
2022/08/31 01:07:01;;;;;;;;;;;;;;;;;;4790142;29;19933;-45
2022/08/31 01:09:31;;;;;;;;;;;;;;;;;;4790105;29;19929;-42
2022/08/31 01:11:59;;;;;;;;;;;;;;;;;;4803855;29;19996;-47
2022/08/31 01:14:26;;;;;;;;;;;;;;;;;;4803946;29;19925;-41
2022/08/31 01:16:53;;;;;;;;;;;;;;;;;;4790233;29;20379;-42
2022/08/31 01:19:34;;;;;;;;;;;;;;;;;;4789669;29;19930;-43
2022/08/31 01:22:07;;;;;;;;;;;;;;;;;;4789988;29;20336;-48
2022/08/31 01:24:34;;;;;;;;;;;;;;;;;;4789768;29;19929;-44
2022/08/31 01:27:03;;;;;;;;;;;;;;;;;;4790010;29;19925;-45
2022/08/31 01:29:30;;;;;;;;;;;;;;;;;;4789803;30;19926;-43
2022/08/31 01:31:58;;;;;;;;;;;;;;;;;;4789640;29;20020;-44
2022/08/31 01:34:26;;;;;;;;;;;;;;;;;;4789658;29;19925;-42
2022/08/31 01:36:53;;;;;;;;;;;;;;;;;;4803497;29;19932;-43
2022/08/31 01:39:21;;;;;;;;;;;;;;;;;;4789613;29;19925;-47
2022/08/31 01:41:48;;;;;;;;;;;;;;;;;;4789741;29;20347;-44
2022/08/31 01:44:18;;;;;;;;;;;;;;;;;;4801607;29;20377;-45
2022/08/31 01:46:45;;;;;;;;;;;;;;;;;;4785230;29;20434;-40
2022/08/31 01:49:14;;;;;;;;;;;;;;;;;;4785281;30;19930;-42
2022/08/31 01:51:42;;;;;;;;;;;;;;;;;;4771547;30;19926;-43
2022/08/31 01:54:09;;;;;;;;;;;;;;;;;;4785224;30;19960;-42
2022/08/31 01:56:39;;;;;;;;;;;;;;;;;;4771292;30;19946;-42
2022/08/31 01:59:11;;;;;;;;;;;;;;;;;;4771154;30;20360;-41
2022/08/31 02:01:57;;;;;;;;;;;;;;;;;;4771060;30;19932;-42
2022/08/31 02:04:26;;;;;;;;;;;;;;;;;;4785233;29;19925;-43
2022/08/31 02:06:56;;;;;;;;;;;;;;;;;;4785037;29;19930;-42
2022/08/31 02:09:24;;;;;;;;;;;;;;;;;;4785086;29;20390;-41
2022/08/31 02:11:51;;;;;;;;;;;;;;;;;;4784800;30;20017;-42
2022/08/31 02:14:19;;;;;;;;;;;;;;;;;;4771217;30;20390;-43
2022/08/31 02:16:47;;;;;;;;;;;;;;;;;;4784971;29;19929;-41
2022/08/31 02:19:15;;;;;;;;;;;;;;;;;;4787760;29;19925;-42
2022/08/31 02:21:42;;;;;;;;;;;;;;;;;;4788681;29;20408;-45
2022/08/31 02:24:12;;;;;;;;;;;;;;;;;;4802474;29;20344;-43
2022/08/31 02:26:40;;;;;;;;;;;;;;;;;;4788527;29;19926;-43
2022/08/31 02:29:07;;;;;;;;;;;;;;;;;;4802375;29;19960;-47
2022/08/31 02:31:35;;;;;;;;;;;;;;;;;;4802083;29;19929;-42
2022/08/31 02:34:02;;;;;;;;;;;;;;;;;;4788646;29;20306;-43
2022/08/31 02:36:31;;;;;;;;;;;;;;;;;;4802512;29;20026;-43
2022/08/31 02:38:58;;;;;;;;;;;;;;;;;;4788465;29;20267;-44
2022/08/31 02:41:26;;;;;;;;;;;;;;;;;;4802380;29;19972;-42
2022/08/31 02:43:53;;;;;;;;;;;;;;;;;;4784501;29;20029;-45
2022/08/31 02:46:21;;;;;;;;;;;;;;;;;;4770672;30;19933;-44
2022/08/31 02:49:14;;;;;;;;;;;;;;;;;;4769477;30;20413;-41
2022/08/31 02:51:42;;;;;;;;;;;;;;;;;;4770554;29;19926;-43
2022/08/31 02:54:10;;;;;;;;;;;;;;;;;;4770366;30;20404;-41
2022/08/31 02:56:37;;;;;;;;;;;;;;;;;;4770280;30;19926;-43
2022/08/31 02:59:07;;;;;;;;;;;;;;;;;;4783972;29;19929;-41
2022/08/31 03:01:35;;;;;;;;;;;;;;;;;;4770073;29;19926;-42
2022/08/31 03:04:04;;;;;;;;;;;;;;;;;;4783751;30;19932;-41
2022/08/31 03:06:31;;;;;;;;;;;;;;;;;;4770138;30;19925;-44
2022/08/31 03:08:59;;;;;;;;;;;;;;;;;;4783683;30;19926;-42
2022/08/31 03:11:30;;;;;;;;;;;;;;;;;;4783798;29;19926;-43
2022/08/31 03:13:57;;;;;;;;;;;;;;;;;;4783188;30;19992;-42
2022/08/31 03:16:25;;;;;;;;;;;;;;;;;;4784050;30;19936;-42
2022/08/31 03:18:53;;;;;;;;;;;;;;;;;;4770725;29;19975;-41
2022/08/31 03:21:20;;;;;;;;;;;;;;;;;;4801682;29;19925;-41
2022/08/31 03:23:47;;;;;;;;;;;;;;;;;;4801374;29;19934;-42
2022/08/31 03:26:15;;;;;;;;;;;;;;;;;;4783382;29;19929;-42
2022/08/31 03:28:42;;;;;;;;;;;;;;;;;;4765284;30;19976;-43
2022/08/31 03:31:30;;;;;;;;;;;;;;;;;;4752095;30;20391;-41
2022/08/31 03:33:58;;;;;;;;;;;;;;;;;;4751887;30;20012;-41
2022/08/31 03:36:25;;;;;;;;;;;;;;;;;;4765813;30;19930;-45
2022/08/31 03:38:52;;;;;;;;;;;;;;;;;;4751994;30;20013;-40
2022/08/31 03:41:22;;;;;;;;;;;;;;;;;;4765720;30;19982;-42
2022/08/31 03:43:49;;;;;;;;;;;;;;;;;;4765330;30;19960;-45
2022/08/31 03:46:17;;;;;;;;;;;;;;;;;;4751690;30;19984;-44
2022/08/31 03:48:48;;;;;;;;;;;;;;;;;;4764889;30;19968;-42
2022/08/31 03:51:18;;;;;;;;;;;;;;;;;;4764811;30;20379;-48
2022/08/31 03:53:46;;;;;;;;;;;;;;;;;;4765390;30;19938;-42
2022/08/31 03:56:17;;;;;;;;;;;;;;;;;;4765513;30;19926;-44
2022/08/31 03:58:45;;;;;;;;;;;;;;;;;;4765021;30;20013;-41
2022/08/31 04:01:31;;;;;;;;;;;;;;;;;;4765402;30;19933;-46
2022/08/31 04:04:17;;;;;;;;;;;;;;;;;;4751926;30;19932;-44
2022/08/31 04:07:05;;;;;;;;;;;;;;;;;;4777433;29;19937;-43
2022/08/31 04:09:50;;;;;;;;;;;;;;;;;;4751751;30;19933;-50
2022/08/31 04:12:37;;;;;;;;;;;;;;;;;;4751510;30;20299;-43
2022/08/31 04:15:10;;;;;;;;;;;;;;;;;;4764553;30;20303;-41
2022/08/31 04:17:56;;;;;;;;;;;;;;;;;;4751784;30;19934;-45
2022/08/31 04:20:50;;;;;;;;;;;;;;;;;;4772333;30;20022;-41
2022/08/31 04:23:17;;;;;;;;;;;;;;;;;;4783168;30;19926;-41
2022/08/31 04:25:48;;;;;;;;;;;;;;;;;;4786318;30;19930;-44
2022/08/31 04:28:15;;;;;;;;;;;;;;;;;;4772742;30;19929;-47
2022/08/31 04:30:43;;;;;;;;;;;;;;;;;;4772687;29;19973;-41
2022/08/31 04:33:14;;;;;;;;;;;;;;;;;;4772430;29;20337;-46
2022/08/31 04:35:41;;;;;;;;;;;;;;;;;;4786281;30;19925;-48
2022/08/31 04:38:09;;;;;;;;;;;;;;;;;;4786242;30;20337;-44
2022/08/31 04:40:38;;;;;;;;;;;;;;;;;;4786127;30;20016;-42
2022/08/31 04:43:06;;;;;;;;;;;;;;;;;;4772541;30;19932;-43
2022/08/31 04:45:33;;;;;;;;;;;;;;;;;;4785858;30;19925;-43
2022/08/31 04:48:00;;;;;;;;;;;;;;;;;;4786218;30;19955;-43
2022/08/31 04:50:28;;;;;;;;;;;;;;;;;;4785842;29;19934;-40
2022/08/31 04:53:07;;;;;;;;;;;;;;;;;;4772402;29;20297;-45
2022/08/31 04:55:38;;;;;;;;;;;;;;;;;;4772344;30;19929;-41
2022/08/31 04:58:07;;;;;;;;;;;;;;;;;;4786165;30;19932;-47
2022/08/31 05:00:34;;;;;;;;;;;;;;;;;;4786018;30;19983;-42
2022/08/31 05:03:39;;;;;;;;;;;;;;;;;;4734668;30;19947;-43
2022/08/31 05:06:13;;;;;;;;;;;;;;;;;;4762018;30;19929;-41
2022/08/31 05:08:41;;;;;;;;;;;;;;;;;;4772199;30;19930;-48
2022/08/31 05:11:09;;;;;;;;;;;;;;;;;;4785769;30;20063;-41
2022/08/31 05:13:37;;;;;;;;;;;;;;;;;;4785691;30;20394;-43
2022/08/31 05:16:05;;;;;;;;;;;;;;;;;;4785839;30;19933;-41
2022/08/31 05:18:34;;;;;;;;;;;;;;;;;;4785389;29;20025;-43
2022/08/31 05:21:09;;;;;;;;;;;;;;;;;;4801698;29;19979;-44
2022/08/31 05:23:37;;;;;;;;;;;;;;;;;;4803422;29;19929;-47
2022/08/31 05:26:05;;;;;;;;;;;;;;;;;;4789920;29;19925;-44
2022/08/31 05:28:33;;;;;;;;;;;;;;;;;;4803559;29;19933;-46
2022/08/31 05:31:02;;;;;;;;;;;;;;;;;;4803545;29;19925;-41
2022/08/31 05:33:35;;;;;;;;;;;;;;;;;;4803237;29;19935;-43
2022/08/31 05:36:03;;;;;;;;;;;;;;;;;;4802949;29;19929;-43
2022/08/31 05:38:30;;;;;;;;;;;;;;;;;;4789596;29;19925;-44
2022/08/31 05:40:58;;;;;;;;;;;;;;;;;;4803428;29;19948;-45
2022/08/31 05:43:27;;;;;;;;;;;;;;;;;;4803121;29;19963;-47
2022/08/31 05:45:54;;;;;;;;;;;;;;;;;;4803423;29;19925;-45
2022/08/31 05:48:22;;;;;;;;;;;;;;;;;;4802503;29;19932;-47
2022/08/31 05:50:50;;;;;;;;;;;;;;;;;;4803142;29;19959;-43
2022/08/31 05:53:17;;;;;;;;;;;;;;;;;;4803226;29;20041;-47
2022/08/31 05:55:45;;;;;;;;;;;;;;;;;;4803069;29;19930;-44
2022/08/31 05:58:12;;;;;;;;;;;;;;;;;;4803027;29;19934;-45
2022/08/31 06:00:40;;;;;;;;;;;;;;;;;;4802807;29;19925;-43
2022/08/31 06:03:36;;;;;;;;;;;;;;;;;;4789158;29;19925;-43
2022/08/31 06:06:04;;;;;;;;;;;;;;;;;;4803214;29;19926;-44
2022/08/31 06:08:35;;;;;;;;;;;;;;;;;;4789179;29;19935;-46
2022/08/31 06:11:02;;;;;;;;;;;;;;;;;;4802776;29;20027;-45
2022/08/31 06:13:29;;;;;;;;;;;;;;;;;;4802714;29;20028;-46
2022/08/31 06:15:59;;;;;;;;;;;;;;;;;;4802892;29;19960;-43
2022/08/31 06:18:27;;;;;;;;;;;;;;;;;;4789063;29;19990;-41
2022/08/31 06:21:07;;;;;;;;;;;;;;;;;;4802957;29;19932;-46
2022/08/31 06:23:35;;;;;;;;;;;;;;;;;;4787273;29;19936;-46
2022/08/31 06:26:11;;;;;;;;;;;;;;;;;;4784865;30;19925;-48
2022/08/31 06:28:42;;;;;;;;;;;;;;;;;;4784675;29;19983;-45
2022/08/31 06:31:30;;;;;;;;;;;;;;;;;;4784462;29;20408;-46
2022/08/31 06:33:58;;;;;;;;;;;;;;;;;;4784189;30;20016;-43
2022/08/31 06:37:00;;;;;;;;;;;;;;;;;;4750930;30;19972;-48
2022/08/31 06:39:30;;;;;;;;;;;;;;;;;;4767152;30;19932;-46
2022/08/31 06:42:13;;;;;;;;;;;;;;;;;;4784112;29;19985;-44
2022/08/31 06:44:59;;;;;;;;;;;;;;;;;;4770489;30;19942;-49
2022/08/31 06:47:45;;;;;;;;;;;;;;;;;;4769587;30;19932;-47
2022/08/31 06:50:14;;;;;;;;;;;;;;;;;;4784411;29;20283;-46
2022/08/31 06:52:41;;;;;;;;;;;;;;;;;;4784095;29;20360;-50
2022/08/31 06:55:20;;;;;;;;;;;;;;;;;;4783931;29;19926;-43
2022/08/31 06:58:06;;;;;;;;;;;;;;;;;;4770442;30;19937;-44
2022/08/31 07:00:52;;;;;;;;;;;;;;;;;;4770477;30;19932;-46
2022/08/31 07:03:32;;;;;;;;;;;;;;;;;;4784279;29;19983;-49
2022/08/31 07:06:05;;;;;;;;;;;;;;;;;;4770376;29;20345;-47
2022/08/31 07:08:38;;;;;;;;;;;;;;;;;;5193559;27;20052;-48
2022/08/31 07:11:17;;;;;;;;;;;;;;;;;;5174230;27;20018;-47
2022/08/31 07:13:45;;;;;;;;;;;;;;;;;;5174565;27;19926;-43
2022/08/31 07:16:14;;;;;;;;;;;;;;;;;;5174338;27;19923;-45
2022/08/31 07:18:43;;;;;;;;;;;;;;;;;;5174330;27;20025;-47
2022/08/31 07:21:13;;;;;;;;;;;;;;;;;;5174085;27;19931;-47
2022/08/31 07:23:41;;;;;;;;;;;;;;;;;;5193057;27;19983;-44
2022/08/31 07:26:13;;;;;;;;;;;;;;;;;;5174189;27;19926;-42
2022/08/31 07:28:43;;;;;;;;;;;;;;;;;;5174238;27;19964;-46
2022/08/31 07:31:14;;;;;;;;;;;;;;;;;;5192622;27;19927;-42
2022/08/31 07:33:42;;;;;;;;;;;;;;;;;;5173877;27;19922;-47
2022/08/31 07:36:12;;;;;;;;;;;;;;;;;;5192772;27;19926;-47
2022/08/31 07:44:28;;;;;;;;;;;;;;;;;;5173715;27;19974;-42
2022/08/31 07:46:56;;;;;;;;;;;;;;;;;;5173629;27;19923;-47
2022/08/31 07:49:25;;;;;;;;;;;;;;;;;;5174112;27;19922;-43
2022/08/31 07:52:23;;;;;;;;;;;;;;;;;;5188367;27;20446;-44
2022/08/31 07:55:11;;;;;;;;;;;;;;;;;;5173585;27;19938;-47
2022/08/31 07:57:53;;;;;;;;;;;;;;;;;;5173678;27;19974;-46
2022/08/31 08:00:23;;;;;;;;;;;;;;;;;;5192456;27;20064;-42
2022/08/31 08:02:50;;;;;;;;;;;;;;;;;;5173330;27;20389;-46
2022/08/31 08:05:24;;;;;;;;;;;;;;;;;;5173368;27;19923;-46
2022/08/31 08:08:33;;;;;;;;;;;;;;;;;;5139928;27;20392;-48
2022/08/31 08:11:22;;;;;;;;;;;;;;;;;;5150518;27;19923;-43
2022/08/31 08:14:13;;;;;;;;;;;;;;;;;;5120287;27;20314;-45
2022/08/31 08:17:04;;;;;;;;;;;;;;;;;;5146613;27;19931;-43
2022/08/31 08:19:45;;;;;;;;;;;;;;;;;;5137883;27;19923;-42
2022/08/31 08:22:12;;;;;;;;;;;;;;;;;;5136221;27;20014;-42
2022/08/31 08:25:27;;;;;;;;;;;;;;;;;;5072741;28;19928;-42
2022/08/31 08:28:03;;;;;;;;;;;;;;;;;;5123667;27;19924;-42
2022/08/31 08:30:53;;;;;;;;;;;;;;;;;;5134879;27;19932;-48
2022/08/31 08:33:24;;;;;;;;;;;;;;;;;;5134699;27;19930;-43
2022/08/31 08:35:59;;;;;;;;;;;;;;;;;;5134769;27;19972;-42
2022/08/31 08:38:31;;;;;;;;;;;;;;;;;;5134894;27;20018;-49
2022/08/31 08:41:01;;;;;;;;;;;;;;;;;;5134462;27;19972;-45
2022/08/31 08:43:33;;;;;;;;;;;;;;;;;;5134435;27;19928;-42
2022/08/31 08:46:02;;;;;;;;;;;;;;;;;;5134643;27;19972;-47
2022/08/31 08:48:47;;;;;;;;;;;;;;;;;;5151809;27;19923;-41
2022/08/31 08:51:26;;;;;;;;;;;;;;;;;;5118458;27;20386;-43
2022/08/31 08:54:05;;;;;;;;;;;;;;;;;;5134244;27;20392;-45
2022/08/31 08:56:40;;;;;;;;;;;;;;;;;;5134036;27;19930;-44
2022/08/31 08:59:10;;;;;;;;;;;;;;;;;;5134241;27;20010;-45
2022/08/31 09:01:46;;;;;;;;;;;;;;;;;;5133842;27;19928;-45
2022/08/31 09:04:16;;;;;;;;;;;;;;;;;;5134156;27;20458;-42
2022/08/31 09:07:11;;;;;;;;;;;;;;;;;;5140463;27;19923;-42
2022/08/31 09:09:48;;;;;;;;;;;;;;;;;;5154862;27;20034;-46
2022/08/31 09:12:19;;;;;;;;;;;;;;;;;;5154964;27;20393;-43
2022/08/31 09:14:52;;;;;;;;;;;;;;;;;;5155938;27;20011;-47
2022/08/31 09:17:31;;;;;;;;;;;;;;;;;;5156053;27;20025;-42
2022/08/31 09:20:05;;;;;;;;;;;;;;;;;;5154404;27;20378;-44
2022/08/31 09:22:49;;;;;;;;;;;;;;;;;;5154530;27;20010;-47
2022/08/31 09:25:25;;;;;;;;;;;;;;;;;;5155905;27;19923;-41
2022/08/31 09:28:15;;;;;;;;;;;;;;;;;;5155333;27;19930;-48
2022/08/31 09:30:43;;;;;;;;;;;;;;;;;;5154563;27;20285;-42
2022/08/31 09:33:24;;;;;;;;;;;;;;;;;;5155357;27;19927;-43
2022/08/31 09:35:55;;;;;;;;;;;;;;;;;;5155392;27;20386;-42
2022/08/31 09:38:28;;;;;;;;;;;;;;;;;;5155595;27;20092;-42
2022/08/31 09:40:55;;;;;;;;;;;;;;;;;;5155705;27;20409;-42
2022/08/31 09:43:24;;;;;;;;;;;;;;;;;;5155596;27;19923;-45
2022/08/31 09:45:56;;;;;;;;;;;;;;;;;;5155328;27;19934;-46
2022/08/31 09:48:38;;;;;;;;;;;;;;;;;;5155559;27;19923;-48
2022/08/31 09:51:05;;;;;;;;;;;;;;;;;;5155195;27;19923;-43
2022/08/31 09:56:25;;;;;;;;;;;;;;;;;;5155313;27;19923;-45
2022/08/31 09:58:54;;;;;;;;;;;;;;;;;;5155061;27;20454;-42
2022/08/31 10:01:21;;;;;;;;;;;;;;;;;;5155086;27;20021;-42
2022/08/31 10:03:48;;;;;;;;;;;;;;;;;;5155098;27;20345;-42
2022/08/31 10:06:26;;;;;;;;;;;;;;;;;;5155693;27;19950;-43
2022/08/31 10:08:58;;;;;;;;;;;;;;;;;;5175881;27;19923;-41
2022/08/31 10:11:28;;;;;;;;;;;;;;;;;;5175621;27;19927;-44
2022/08/31 10:13:59;;;;;;;;;;;;;;;;;;5175909;27;19922;-45
2022/08/31 10:16:31;;;;;;;;;;;;;;;;;;5175795;27;19975;-42
2022/08/31 10:19:01;;;;;;;;;;;;;;;;;;5175389;27;19962;-42
2022/08/31 10:21:43;;;;;;;;;;;;;;;;;;5175416;27;19949;-43
2022/08/31 10:24:27;;;;;;;;;;;;;;;;;;5175405;27;20477;-46
2022/08/31 10:27:03;;;;;;;;;;;;;;;;;;5175441;27;20396;-42
2022/08/31 10:29:38;;;;;;;;;;;;;;;;;;5175041;27;20105;-43
2022/08/31 10:32:26;;;;;;;;;;;;;;;;;;5175475;27;19970;-45
2022/08/31 10:35:04;;;;;;;;;;;;;;;;;;5175334;27;19946;-42
2022/08/31 10:37:35;;;;;;;;;;;;;;;;;;5175238;27;19934;-42
2022/08/31 10:40:06;;;;;;;;;;;;;;;;;;5175227;27;19933;-42
2022/08/31 10:42:37;;;;;;;;;;;;;;;;;;5174934;27;19923;-47
2022/08/31 10:45:13;;;;;;;;;;;;;;;;;;5175113;27;20019;-43
2022/08/31 10:47:46;;;;;;;;;;;;;;;;;;5175005;27;19923;-42
2022/08/31 10:50:15;;;;;;;;;;;;;;;;;;5174860;27;19923;-44
2022/08/31 10:53:12;;;;;;;;;;;;;;;;;;5175252;27;20006;-44
2022/08/31 10:55:45;;;;;;;;;;;;;;;;;;5084274;27;19931;-46
2022/08/31 10:58:22;;;;;;;;;;;;;;;;;;5174986;27;20017;-41
2022/08/31 11:00:49;;;;;;;;;;;;;;;;;;5175017;27;19929;-47
2022/08/31 11:03:34;;;;;;;;;;;;;;;;;;5174855;27;20453;-42
2022/08/31 11:06:12;;;;;;;;;;;;;;;;;;5175139;27;19971;-41
2022/08/31 11:08:58;;;;;;;;;;;;;;;;;;5174684;27;19944;-43
2022/08/31 11:11:42;;;;;;;;;;;;;;;;;;5175027;27;20374;-43
2022/08/31 11:14:28;;;;;;;;;;;;;;;;;;5174700;27;19968;-43
2022/08/31 11:17:08;;;;;;;;;;;;;;;;;;5174958;27;19922;-46
2022/08/31 11:20:05;;;;;;;;;;;;;;;;;;5174528;27;20278;-47
2022/08/31 11:22:51;;;;;;;;;;;;;;;;;;5136400;27;20290;-44
2022/08/31 11:25:38;;;;;;;;;;;;;;;;;;5174686;27;19927;-42
2022/08/31 11:28:11;;;;;;;;;;;;;;;;;;5174776;27;19929;-43
2022/08/31 11:30:44;;;;;;;;;;;;;;;;;;5174536;27;20353;-42
2022/08/31 11:33:20;;;;;;;;;;;;;;;;;;5174695;27;20412;-42
2022/08/31 11:36:00;;;;;;;;;;;;;;;;;;5174768;27;19923;-42
2022/08/31 11:38:51;;;;;;;;;;;;;;;;;;5174559;27;19927;-41
2022/08/31 11:41:40;;;;;;;;;;;;;;;;;;5174591;27;20323;-43
2022/08/31 11:44:08;;;;;;;;;;;;;;;;;;5174648;27;19923;-42
2022/08/31 11:46:59;;;;;;;;;;;;;;;;;;5174158;27;20316;-44
2022/08/31 11:49:37;;;;;;;;;;;;;;;;;;5174641;27;19923;-41
2022/08/31 11:52:09;;;;;;;;;;;;;;;;;;5174452;27;20338;-42
2022/08/31 11:54:40;;;;;;;;;;;;;;;;;;5176959;27;19923;-46
2022/08/31 11:57:14;;;;;;;;;;;;;;;;;;5178245;27;20385;-47
2022/08/31 11:59:45;;;;;;;;;;;;;;;;;;5178187;27;19923;-42
2022/08/31 12:02:18;;;;;;;;;;;;;;;;;;5178091;27;20397;-42
2022/08/31 12:04:46;;;;;;;;;;;;;;;;;;5178062;27;19923;-42
2022/08/31 12:07:15;;;;;;;;;;;;;;;;;;5177829;27;20008;-44
2022/08/31 12:09:52;;;;;;;;;;;;;;;;;;5177745;27;19981;-42
2022/08/31 12:12:38;;;;;;;;;;;;;;;;;;5178257;27;19976;-47
2022/08/31 12:15:24;;;;;;;;;;;;;;;;;;5178161;27;19991;-42
2022/08/31 12:17:56;;;;;;;;;;;;;;;;;;5177953;27;19926;-44
2022/08/31 12:23:39;;;;;;;;;;;;;;;;;;5178121;27;19951;-47
2022/08/31 12:26:06;;;;;;;;;;;;;;;;;;5177661;27;20293;-44
2022/08/31 12:28:52;;;;;;;;;;;;;;;;;;5177305;27;20009;-41
2022/08/31 12:31:20;;;;;;;;;;;;;;;;;;5177242;27;20010;-44
2022/08/31 12:33:54;;;;;;;;;;;;;;;;;;5177638;27;20383;-45
2022/08/31 12:36:27;;;;;;;;;;;;;;;;;;5177407;27;20000;-46
2022/08/31 12:39:07;;;;;;;;;;;;;;;;;;5177529;27;19923;-41
2022/08/31 12:41:38;;;;;;;;;;;;;;;;;;5174761;27;19927;-42
2022/08/31 12:44:05;;;;;;;;;;;;;;;;;;5156237;27;20414;-42
2022/08/31 12:46:51;;;;;;;;;;;;;;;;;;5156390;27;19968;-43
2022/08/31 12:49:37;;;;;;;;;;;;;;;;;;5156229;27;19927;-43
2022/08/31 12:52:15;;;;;;;;;;;;;;;;;;5156333;27;20339;-43
2022/08/31 12:54:42;;;;;;;;;;;;;;;;;;5156175;27;19931;-39
2022/08/31 12:57:28;;;;;;;;;;;;;;;;;;5156086;27;20470;-42
2022/08/31 13:00:01;;;;;;;;;;;;;;;;;;5137898;27;19923;-42
2022/08/31 13:02:30;;;;;;;;;;;;;;;;;;5156154;27;19931;-42
2022/08/31 13:04:59;;;;;;;;;;;;;;;;;;5156184;27;19930;-42
2022/08/31 13:07:33;;;;;;;;;;;;;;;;;;5156067;27;20010;-43
2022/08/31 13:10:12;;;;;;;;;;;;;;;;;;5156286;27;19957;-41
2022/08/31 13:12:46;;;;;;;;;;;;;;;;;;5155881;27;20356;-45
2022/08/31 13:15:21;;;;;;;;;;;;;;;;;;5155847;27;19930;-42
2022/08/31 13:17:49;;;;;;;;;;;;;;;;;;5155943;27;19958;-41
2022/08/31 13:20:17;;;;;;;;;;;;;;;;;;5168289;27;19977;-42
2022/08/31 13:22:47;;;;;;;;;;;;;;;;;;5176715;27;19927;-42
2022/08/31 13:25:30;;;;;;;;;;;;;;;;;;5176244;27;19949;-43
2022/08/31 13:27:58;;;;;;;;;;;;;;;;;;5176782;27;19952;-44
2022/08/31 13:30:25;;;;;;;;;;;;;;;;;;5176621;27;19923;-41
2022/08/31 13:32:53;;;;;;;;;;;;;;;;;;5157783;27;19927;-41
2022/08/31 13:35:24;;;;;;;;;;;;;;;;;;5176544;27;19954;-42
2022/08/31 13:38:04;;;;;;;;;;;;;;;;;;5176276;27;20424;-42
2022/08/31 13:40:35;;;;;;;;;;;;;;;;;;5176524;27;19949;-42
2022/08/31 13:43:07;;;;;;;;;;;;;;;;;;5176267;27;19929;-44
2022/08/31 13:45:39;;;;;;;;;;;;;;;;;;5176151;27;20017;-41
2022/08/31 13:48:11;;;;;;;;;;;;;;;;;;5176135;27;20005;-41
2022/08/31 13:50:53;;;;;;;;;;;;;;;;;;5176192;27;19926;-42
2022/08/31 13:53:39;;;;;;;;;;;;;;;;;;5175923;27;19930;-41
2022/08/31 13:59:26;;;;;;;;;;;;;;;;;;5175607;27;19926;-39
2022/08/31 14:02:27;;;;;;;;;;;;;;;;;;5175060;27;19971;-44
2022/08/31 14:05:04;;;;;;;;;;;;;;;;;;5152426;27;19966;-41
2022/08/31 14:07:52;;;;;;;;;;;;;;;;;;5156831;27;20397;-41
2022/08/31 14:10:33;;;;;;;;;;;;;;;;;;5175620;27;19923;-40
2022/08/31 14:13:03;;;;;;;;;;;;;;;;;;5175754;27;19923;-41
2022/08/31 14:15:49;;;;;;;;;;;;;;;;;;5175180;27;19975;-42
2022/08/31 14:18:28;;;;;;;;;;;;;;;;;;5175362;27;19923;-40
2022/08/31 14:21:05;;;;;;;;;;;;;;;;;;5175617;27;19923;-42
2022/08/31 14:23:53;;;;;;;;;;;;;;;;;;5175481;27;20401;-43
2022/08/31 14:26:24;;;;;;;;;;;;;;;;;;5175488;27;19966;-40
2022/08/31 14:28:58;;;;;;;;;;;;;;;;;;5175074;27;19929;-40
2022/08/31 14:31:29;;;;;;;;;;;;;;;;;;5175604;27;19929;-40
2022/08/31 14:34:09;;;;;;;;;;;;;;;;;;5175198;27;20409;-41
2022/08/31 14:36:43;;;;;;;;;;;;;;;;;;5175286;27;19967;-41
2022/08/31 14:39:10;;;;;;;;;;;;;;;;;;5174990;27;19923;-40
2022/08/31 14:41:38;;;;;;;;;;;;;;;;;;5175167;27;20002;-41
2022/08/31 14:44:08;;;;;;;;;;;;;;;;;;5174869;27;20400;-40
2022/08/31 14:46:39;;;;;;;;;;;;;;;;;;5174913;27;20343;-44
2022/08/31 14:49:08;;;;;;;;;;;;;;;;;;5174910;27;19922;-40
2022/08/31 14:51:37;;;;;;;;;;;;;;;;;;5174890;27;19970;-41
2022/08/31 14:54:06;;;;;;;;;;;;;;;;;;5174958;27;19926;-41
2022/08/31 14:56:35;;;;;;;;;;;;;;;;;;5175106;27;19929;-41
2022/08/31 14:59:05;;;;;;;;;;;;;;;;;;5174806;27;19973;-42
2022/08/31 15:01:35;;;;;;;;;;;;;;;;;;5174792;27;19950;-41
2022/08/31 15:04:02;;;;;;;;;;;;;;;;;;5174443;27;20286;-41
2022/08/31 15:06:30;;;;;;;;;;;;;;;;;;5174540;27;20439;-41
2022/08/31 15:09:00;;;;;;;;;;;;;;;;;;5174436;27;19958;-42
2022/08/31 15:11:27;;;;;;;;;;;;;;;;;;5174923;27;19922;-42
2022/08/31 15:13:54;;;;;;;;;;;;;;;;;;5174996;27;19923;-42
2022/08/31 15:16:25;;;;;;;;;;;;;;;;;;5174368;27;19923;-42
2022/08/31 15:18:54;;;;;;;;;;;;;;;;;;5174641;27;20385;-42
2022/08/31 15:21:24;;;;;;;;;;;;;;;;;;5174653;27;20056;-41
2022/08/31 15:23:51;;;;;;;;;;;;;;;;;;5174355;27;20013;-42
2022/08/31 15:26:20;;;;;;;;;;;;;;;;;;5174350;27;20564;-42
2022/08/31 15:28:51;;;;;;;;;;;;;;;;;;5175770;27;20338;-41
2022/08/31 15:31:23;;;;;;;;;;;;;;;;;;5178997;27;19930;-41
2022/08/31 15:33:54;;;;;;;;;;;;;;;;;;5178631;27;19926;-41
2022/08/31 15:36:24;;;;;;;;;;;;;;;;;;5178614;27;19929;-41
2022/08/31 15:38:56;;;;;;;;;;;;;;;;;;5178881;27;19923;-40
2022/08/31 15:41:25;;;;;;;;;;;;;;;;;;5178633;27;19930;-41
2022/08/31 15:43:53;;;;;;;;;;;;;;;;;;5178569;27;19937;-41
2022/08/31 15:49:08;;;;;;;;;;;;;;;;;;5178350;27;20319;-42
2022/08/31 15:51:47;;;;;;;;;;;;;;;;;;5178301;27;20356;-41
2022/08/31 15:54:16;;;;;;;;;;;;;;;;;;5159930;27;19923;-41
2022/08/31 15:56:49;;;;;;;;;;;;;;;;;;5178234;27;20017;-41
2022/08/31 15:59:17;;;;;;;;;;;;;;;;;;5178434;27;19923;-41
2022/08/31 16:01:44;;;;;;;;;;;;;;;;;;5178126;27;19929;-41
2022/08/31 16:04:14;;;;;;;;;;;;;;;;;;5178465;27;19923;-40
2022/08/31 16:06:43;;;;;;;;;;;;;;;;;;5178013;27;19927;-41
2022/08/31 16:09:11;;;;;;;;;;;;;;;;;;5177979;27;19923;-41
2022/08/31 16:11:38;;;;;;;;;;;;;;;;;;5178115;27;19967;-41
2022/08/31 16:14:09;;;;;;;;;;;;;;;;;;5178133;27;20349;-41
2022/08/31 16:16:39;;;;;;;;;;;;;;;;;;5177948;27;20378;-42
2022/08/31 16:19:07;;;;;;;;;;;;;;;;;;5159557;27;19929;-41
2022/08/31 16:21:36;;;;;;;;;;;;;;;;;;5177599;27;19922;-41
2022/08/31 16:24:06;;;;;;;;;;;;;;;;;;5177821;27;20285;-41
2022/08/31 16:26:36;;;;;;;;;;;;;;;;;;5178062;27;20001;-40
2022/08/31 16:29:07;;;;;;;;;;;;;;;;;;5177605;27;19939;-42
2022/08/31 16:31:34;;;;;;;;;;;;;;;;;;5177694;27;20274;-41
2022/08/31 16:34:01;;;;;;;;;;;;;;;;;;5177415;27;19927;-40
2022/08/31 16:36:30;;;;;;;;;;;;;;;;;;5177733;27;19926;-41
2022/08/31 16:39:00;;;;;;;;;;;;;;;;;;5177417;27;20013;-41
2022/08/31 16:41:30;;;;;;;;;;;;;;;;;;5177413;27;19923;-41
2022/08/31 16:43:59;;;;;;;;;;;;;;;;;;5177849;27;19930;-47
2022/08/31 16:46:45;;;;;;;;;;;;;;;;;;5177712;27;19945;-45
2022/08/31 16:49:34;;;;;;;;;;;;;;;;;;5177253;27;19935;-41
2022/08/31 16:52:04;;;;;;;;;;;;;;;;;;5177522;27;19923;-41
2022/08/31 16:54:33;;;;;;;;;;;;;;;;;;5177303;27;20390;-41
2022/08/31 16:57:00;;;;;;;;;;;;;;;;;;5177143;27;20385;-41
2022/08/31 16:59:28;;;;;;;;;;;;;;;;;;5177568;27;20301;-41
2022/08/31 17:01:55;;;;;;;;;;;;;;;;;;5177351;27;20001;-42
2022/08/31 17:04:23;;;;;;;;;;;;;;;;;;5176952;27;19929;-41
2022/08/31 17:07:12;;;;;;;;;;;;;;;;;;5176984;27;19998;-41
2022/08/31 17:09:41;;;;;;;;;;;;;;;;;;5176743;27;19933;-41
2022/08/31 17:12:11;;;;;;;;;;;;;;;;;;5176732;27;20399;-42
2022/08/31 17:14:45;;;;;;;;;;;;;;;;;;5176897;27;19950;-43
2022/08/31 17:17:23;;;;;;;;;;;;;;;;;;5176658;27;19927;-41
2022/08/31 17:19:51;;;;;;;;;;;;;;;;;;5176323;27;20297;-41
2022/08/31 17:22:20;;;;;;;;;;;;;;;;;;5176565;27;19976;-42
2022/08/31 17:24:56;;;;;;;;;;;;;;;;;;5176453;27;19923;-43
2022/08/31 17:27:24;;;;;;;;;;;;;;;;;;5176543;27;19934;-41
2022/08/31 17:29:52;;;;;;;;;;;;;;;;;;5176369;27;19981;-41
2022/08/31 17:32:22;;;;;;;;;;;;;;;;;;5176211;27;19934;-40
2022/08/31 17:34:50;;;;;;;;;;;;;;;;;;5158093;27;19937;-40
2022/08/31 17:37:26;;;;;;;;;;;;;;;;;;5176367;27;19929;-40
2022/08/31 17:39:54;;;;;;;;;;;;;;;;;;5176330;27;19923;-42
2022/08/31 17:42:22;;;;;;;;;;;;;;;;;;5176458;27;20323;-40
2022/08/31 17:44:51;;;;;;;;;;;;;;;;;;5176037;27;19990;-40
2022/08/31 17:47:20;;;;;;;;;;;;;;;;;;5176270;27;19922;-42